createdAt,value
2022-08-26T00:02:10.728Z,16.46
2022-08-26T00:07:18.247Z,16.56
2022-08-26T00:12:25.842Z,16.72
2022-08-26T00:17:33.745Z,16.83
2022-08-26T00:22:41.779Z,16.64
2022-08-26T00:27:50.486Z,16.48
2022-08-26T00:32:58.881Z,16.41
2022-08-26T00:38:05.674Z,16.36
2022-08-26T00:43:12.220Z,16.32
2022-08-26T00:48:19.570Z,16.4
2022-08-26T00:53:26.621Z,16.36
2022-08-26T00:58:34.392Z,16.25
2022-08-26T01:03:41.674Z,16.26
2022-08-26T01:08:48.886Z,16.16
2022-08-26T01:13:56.349Z,16.15
2022-08-26T01:19:03.676Z,16.16
2022-08-26T01:24:10.843Z,16.21
2022-08-26T01:29:18.645Z,16.23
2022-08-26T01:34:27.350Z,16.25
2022-08-26T01:39:34.627Z,16.22
2022-08-26T01:44:42.151Z,16.21
2022-08-26T01:49:49.680Z,16.22
2022-08-26T01:54:56.368Z,16.2
2022-08-26T02:00:03.422Z,16.2
2022-08-26T02:05:10.919Z,16.21
2022-08-26T02:10:17.826Z,16.15
2022-08-26T02:15:25.042Z,16.04
2022-08-26T02:20:32.602Z,16.03
2022-08-26T02:25:40.259Z,15.92
2022-08-26T02:30:48.532Z,15.86
2022-08-26T02:35:56.181Z,15.83
2022-08-26T02:41:03.140Z,15.83
2022-08-26T02:46:11.639Z,15.79
2022-08-26T02:51:19.324Z,15.78
2022-08-26T02:56:27.414Z,15.79
2022-08-26T03:01:34.296Z,15.92
2022-08-26T03:06:42.132Z,16.01
2022-08-26T03:11:49.734Z,15.93
2022-08-26T03:16:57.512Z,15.78
2022-08-26T03:22:04.370Z,15.74
2022-08-26T03:27:14.011Z,15.82
2022-08-26T03:32:22.485Z,15.9
2022-08-26T03:37:35.270Z,15.82
2022-08-26T03:42:42.155Z,15.74
2022-08-26T03:47:50.044Z,15.74
2022-08-26T03:52:57.499Z,15.68
2022-08-26T03:58:05.739Z,15.52
2022-08-26T04:03:12.840Z,15.56
2022-08-26T04:08:21.000Z,15.7
2022-08-26T04:13:29.173Z,15.71
2022-08-26T04:18:36.453Z,15.78
2022-08-26T04:23:42.938Z,15.72
2022-08-26T04:28:52.239Z,15.71
2022-08-26T04:34:05.803Z,15.78
2022-08-26T04:39:14.013Z,15.82
2022-08-26T04:44:21.418Z,15.94
2022-08-26T04:49:29.470Z,16.07
2022-08-26T04:54:37.053Z,16.35
2022-08-26T04:59:45.668Z,16.98
2022-08-26T05:04:52.707Z,17.47
2022-08-26T05:09:59.137Z,17.94
2022-08-26T05:15:07.100Z,18.48
2022-08-26T05:20:15.148Z,18.9
2022-08-26T05:25:23.947Z,19.46
2022-08-26T05:30:32.413Z,20.01
2022-08-26T05:35:39.771Z,20.62
2022-08-26T05:40:48.089Z,21.21
2022-08-26T05:45:55.398Z,21.73
2022-08-26T05:51:02.642Z,21.96
2022-08-26T05:56:09.485Z,21.56
2022-08-26T06:01:17.845Z,21.2
2022-08-26T06:06:24.244Z,21.02
2022-08-26T06:11:31.757Z,21.58
2022-08-26T06:16:40.481Z,23.34
2022-08-26T06:21:49.136Z,24.96
2022-08-26T06:26:58.095Z,26.33
2022-08-26T06:32:05.942Z,27.56
2022-08-26T06:37:14.661Z,28.62
2022-08-26T06:42:23.055Z,29.5
2022-08-26T06:47:30.814Z,30.48
2022-08-26T06:52:38.029Z,31.68
2022-08-26T06:57:46.329Z,32.94
2022-08-26T07:02:54.239Z,33.98
2022-08-26T07:08:01.785Z,35.02
2022-08-26T07:13:09.647Z,35.99
2022-08-26T07:18:17.523Z,36.72
2022-08-26T07:23:25.366Z,37.59
2022-08-26T07:28:32.312Z,37.9
2022-08-26T07:33:40.230Z,38.18
2022-08-26T07:38:47.117Z,38.09
2022-08-26T07:43:54.802Z,37.95
2022-08-26T07:49:02.482Z,37.72
2022-08-26T07:54:10.334Z,37.49
2022-08-26T07:59:18.621Z,37.84
2022-08-26T08:04:26.118Z,37.4
2022-08-26T08:09:33.661Z,37.04
2022-08-26T08:14:41.490Z,36.85
2022-08-26T08:19:48.693Z,36.43
2022-08-26T08:24:55.980Z,36.66
2022-08-26T08:30:04.246Z,36.04
2022-08-26T08:35:11.693Z,36.44
2022-08-26T08:40:19.695Z,35.46
2022-08-26T08:45:27.293Z,34.94
2022-08-26T08:50:35.190Z,34.94
2022-08-26T08:55:42.318Z,34.47
2022-08-26T09:00:50.125Z,34.25
2022-08-26T09:05:57.471Z,34.2
2022-08-26T09:11:04.534Z,34.08
2022-08-26T09:16:12.380Z,34.36
2022-08-26T09:21:19.965Z,34.66
2022-08-26T09:26:26.776Z,34.99
2022-08-26T09:31:34.577Z,35.2
2022-08-26T09:36:42.256Z,35.22
2022-08-26T09:41:50.808Z,35.82
2022-08-26T09:46:58.570Z,35.97
2022-08-26T09:52:06.003Z,36.18
2022-08-26T09:57:14.657Z,36.54
2022-08-26T10:02:22.062Z,36.52
2022-08-26T10:07:30.134Z,36.59
2022-08-26T10:12:37.337Z,36.86
2022-08-26T10:17:45.684Z,36.84
2022-08-26T10:22:52.592Z,36.12
2022-08-26T10:28:01.174Z,36.39
2022-08-26T10:33:08.050Z,35.82
2022-08-26T10:38:15.931Z,35.67
2022-08-26T10:43:24.109Z,36.08
2022-08-26T10:48:31.709Z,36.76
2022-08-26T10:53:39.403Z,36.72
2022-08-26T10:58:46.176Z,34.46
2022-08-26T11:03:53.179Z,35.42
2022-08-26T11:09:01.020Z,36.7
2022-08-26T11:14:08.975Z,37.22
2022-08-26T11:19:17.202Z,37.57
2022-08-26T11:24:25.637Z,36.33
2022-08-26T11:29:33.009Z,34.88
2022-08-26T11:34:40.255Z,33.99
2022-08-26T11:39:49.276Z,33.39
2022-08-26T11:44:57.383Z,34.92
2022-08-26T11:50:05.235Z,35.52
2022-08-26T11:55:13.486Z,34.08
2022-08-26T12:00:20.786Z,33.42
2022-08-26T12:05:28.577Z,34.24
2022-08-26T12:10:36.401Z,34.97
2022-08-26T12:15:44.290Z,35.18
2022-08-26T12:20:51.367Z,35.02
2022-08-26T12:25:59.264Z,35.1
2022-08-26T12:31:07.828Z,35.08
2022-08-26T12:36:16.404Z,35.44
2022-08-26T12:41:24.177Z,35.44
2022-08-26T12:46:37.666Z,35.79
2022-08-26T12:51:44.226Z,35.85
2022-08-26T12:56:51.420Z,35.54
2022-08-26T13:01:59.267Z,35.72
2022-08-26T13:07:06.716Z,35.47
2022-08-26T13:12:13.704Z,35.38
2022-08-26T13:17:21.450Z,35.59
2022-08-26T13:22:29.671Z,35.8
2022-08-26T13:27:37.181Z,36.16
2022-08-26T13:32:44.549Z,36.52
2022-08-26T13:37:52.179Z,36.7
2022-08-26T13:43:00.319Z,36.71
2022-08-26T13:48:09.390Z,37.14
2022-08-26T13:53:16.317Z,37.47
2022-08-26T13:58:22.936Z,37.16
2022-08-26T14:03:30.402Z,37.04
2022-08-26T14:08:39.060Z,37.1
2022-08-26T14:13:46.200Z,36.76
2022-08-26T14:18:53.711Z,36.42
2022-08-26T14:25:32.977Z,36.28
2022-08-26T14:30:38.936Z,36.11
2022-08-26T14:35:45.503Z,36.08
2022-08-26T14:40:52.663Z,36.1
2022-08-26T14:46:00.507Z,35.94
2022-08-26T14:51:07.598Z,35.21
2022-08-26T14:56:16.597Z,35.34
2022-08-26T15:01:24.767Z,35.33
2022-08-26T15:06:32.248Z,34.82
2022-08-26T15:11:39.790Z,34.22
2022-08-26T15:16:47.451Z,34.17
2022-08-26T15:21:54.169Z,34.43
2022-08-26T15:27:01.376Z,34.81
2022-08-26T15:32:12.361Z,33.9
2022-08-26T15:37:20.219Z,32.84
2022-08-26T15:42:26.136Z,31.8
2022-08-26T15:47:32.702Z,30.99
2022-08-26T15:52:39.853Z,30.15
2022-08-26T15:57:46.638Z,29.52
2022-08-26T16:02:54.169Z,28.76
2022-08-26T16:08:01.068Z,28.11
2022-08-26T16:13:08.434Z,27.57
2022-08-26T16:18:14.893Z,27.34
2022-08-26T16:23:21.829Z,27.14
2022-08-26T16:28:29.331Z,26.76
2022-08-26T16:33:37.503Z,26.34
2022-08-26T16:38:44.636Z,25.93
2022-08-26T16:43:52.481Z,25.78
2022-08-26T16:48:59.403Z,25.58
2022-08-26T16:54:06.038Z,25.3
2022-08-26T16:59:14.305Z,25.06
2022-08-26T17:04:21.712Z,24.76
2022-08-26T17:09:29.825Z,24.5
2022-08-26T17:14:38.174Z,24.34
2022-08-26T17:19:46.012Z,24.15
2022-08-26T17:24:53.856Z,23.88
2022-08-26T17:30:00.544Z,23.61
2022-08-26T17:35:07.744Z,23.38
2022-08-26T17:40:15.356Z,23.25
2022-08-26T17:45:22.822Z,22.86
2022-08-26T17:50:30.673Z,22.49
2022-08-26T17:55:39.091Z,22.22
2022-08-26T18:00:47.025Z,22.07
2022-08-26T18:05:54.009Z,22.0
2022-08-26T18:11:00.251Z,21.85
2022-08-26T18:16:07.261Z,21.69
2022-08-26T18:21:14.464Z,21.72
2022-08-26T18:26:21.657Z,21.85
2022-08-26T18:31:29.823Z,21.75
2022-08-26T18:36:37.425Z,21.62
2022-08-26T18:41:45.295Z,21.52
2022-08-26T18:46:53.055Z,21.76
2022-08-26T18:52:04.111Z,21.94
2022-08-26T18:57:17.050Z,22.14
2022-08-26T19:02:23.581Z,22.25
2022-08-26T19:07:30.203Z,22.22
2022-08-26T19:12:37.341Z,22.08
2022-08-26T19:17:44.538Z,21.9
2022-08-26T19:23:06.732Z,21.84
2022-08-26T19:28:15.298Z,21.68
2022-08-26T19:33:23.048Z,21.52
2022-08-26T19:38:30.292Z,21.4
2022-08-26T19:43:44.730Z,21.3
2022-08-26T19:48:50.780Z,21.26
2022-08-26T19:53:58.621Z,21.14
2022-08-26T19:59:05.181Z,20.98
2022-08-26T20:04:12.956Z,20.86
2022-08-26T20:09:20.380Z,20.79
2022-08-26T20:14:28.063Z,20.78
2022-08-26T20:19:35.259Z,20.78
2022-08-26T20:24:42.462Z,20.78
2022-08-26T20:29:50.810Z,20.71
2022-08-26T20:34:58.896Z,20.92
2022-08-26T20:40:08.335Z,21.19
2022-08-26T20:45:15.307Z,21.38
2022-08-26T20:50:22.302Z,21.72
2022-08-26T20:55:29.635Z,22.02
2022-08-26T21:00:38.038Z,20.81
2022-08-26T21:05:43.882Z,19.64
2022-08-26T21:10:49.853Z,19.06
2022-08-26T21:15:58.808Z,18.78
2022-08-26T21:21:06.008Z,18.36
2022-08-26T21:26:13.344Z,18.16
2022-08-26T21:31:20.843Z,18.08
2022-08-26T21:36:28.373Z,18.02
2022-08-26T21:41:37.297Z,18.12
2022-08-26T21:46:45.037Z,18.26
2022-08-26T21:51:52.410Z,18.28
2022-08-26T21:56:59.935Z,18.34
2022-08-26T22:03:38.500Z,18.44
2022-08-26T22:08:45.020Z,18.54
2022-08-26T22:13:52.220Z,18.52
2022-08-26T22:18:59.417Z,18.53
2022-08-26T22:24:06.949Z,18.6
2022-08-26T22:29:15.724Z,18.69
2022-08-26T22:34:22.648Z,18.69
2022-08-26T22:39:30.174Z,18.7
2022-08-26T22:44:38.277Z,18.7
2022-08-26T22:49:45.818Z,18.74
2022-08-26T22:54:53.981Z,18.74
2022-08-26T23:00:02.020Z,18.76
2022-08-26T23:05:09.338Z,18.76
2022-08-26T23:10:16.566Z,18.76
2022-08-26T23:15:23.740Z,18.78
2022-08-26T23:20:32.534Z,18.79
2022-08-26T23:25:41.073Z,18.8
2022-08-26T23:30:49.345Z,18.8
2022-08-26T23:35:57.618Z,18.86
2022-08-26T23:41:04.861Z,18.9
2022-08-26T23:46:12.713Z,18.9
2022-08-26T23:51:20.604Z,18.88
2022-08-26T23:56:28.416Z,18.86
